sensor_id;sensor_type;location;lat;lon;timestamp;temperature;humidity
8593;DHT22;4334;49.982;8.398;2023-05-15T00:02:26;11.40;99.90
8593;DHT22;4334;49.982;8.398;2023-05-15T00:04:53;11.50;99.90
8593;DHT22;4334;49.982;8.398;2023-05-15T00:07:20;11.50;99.90
8593;DHT22;4334;49.982;8.398;2023-05-15T00:09:46;14.30;99.90
8593;DHT22;4334;49.982;8.398;2023-05-15T00:12:13;11.30;99.90
8593;DHT22;4334;49.982;8.398;2023-05-15T00:14:41;13.80;99.90
8593;DHT22;4334;49.982;8.398;2023-05-15T00:17:08;11.10;99.90
8593;DHT22;4334;49.982;8.398;2023-05-15T00:19:37;11.20;99.90
8593;DHT22;4334;49.982;8.398;2023-05-15T00:26:59;11.10;99.90
8593;DHT22;4334;49.982;8.398;2023-05-15T00:29:26;11.00;99.90
8593;DHT22;4334;49.982;8.398;2023-05-15T00:31:54;10.90;99.90
8593;DHT22;4334;49.982;8.398;2023-05-15T00:34:21;10.90;99.90
8593;DHT22;4334;49.982;8.398;2023-05-15T00:36:48;10.90;99.90
8593;DHT22;4334;49.982;8.398;2023-05-15T00:39:15;15.10;99.90
8593;DHT22;4334;49.982;8.398;2023-05-15T00:41:42;10.80;99.90
8593;DHT22;4334;49.982;8.398;2023-05-15T00:46:38;10.80;99.90
8593;DHT22;4334;49.982;8.398;2023-05-15T00:49:07;10.80;99.90
8593;DHT22;4334;49.982;8.398;2023-05-15T00:51:39;10.70;99.90
8593;DHT22;4334;49.982;8.398;2023-05-15T00:54:06;10.70;99.90
8593;DHT22;4334;49.982;8.398;2023-05-15T00:59:02;10.60;99.90
8593;DHT22;4334;49.982;8.398;2023-05-15T01:01:29;10.60;99.90
8593;DHT22;4334;49.982;8.398;2023-05-15T01:03:59;10.50;99.90
8593;DHT22;4334;49.982;8.398;2023-05-15T01:08:56;10.40;99.90
8593;DHT22;4334;49.982;8.398;2023-05-15T01:11:27;11.60;99.90
8593;DHT22;4334;49.982;8.398;2023-05-15T01:14:02;12.20;99.90
8593;DHT22;4334;49.982;8.398;2023-05-15T01:16:28;10.30;99.90
8593;DHT22;4334;49.982;8.398;2023-05-15T01:21:42;10.60;99.90
8593;DHT22;4334;49.982;8.398;2023-05-15T01:24:22;10.50;99.90
8593;DHT22;4334;49.982;8.398;2023-05-15T01:27:10;10.50;99.90
8593;DHT22;4334;49.982;8.398;2023-05-15T01:29:42;10.30;99.90
8593;DHT22;4334;49.982;8.398;2023-05-15T01:32:13;10.30;99.90
8593;DHT22;4334;49.982;8.398;2023-05-15T01:34:51;10.20;99.90
8593;DHT22;4334;49.982;8.398;2023-05-15T01:37:23;10.10;99.90
8593;DHT22;4334;49.982;8.398;2023-05-15T01:39:53;10.00;99.90
8593;DHT22;4334;49.982;8.398;2023-05-15T01:42:28;10.20;99.90
8593;DHT22;4334;49.982;8.398;2023-05-15T01:44:56;10.30;99.90
8593;DHT22;4334;49.982;8.398;2023-05-15T01:47:32;10.30;99.90
8593;DHT22;4334;49.982;8.398;2023-05-15T01:50:01;10.20;99.90
8593;DHT22;4334;49.982;8.398;2023-05-15T01:52:32;10.30;99.90
8593;DHT22;4334;49.982;8.398;2023-05-15T01:55:00;10.10;99.90
8593;DHT22;4334;49.982;8.398;2023-05-15T01:57:30;10.10;99.90
8593;DHT22;4334;49.982;8.398;2023-05-15T01:59:57;10.30;99.90
8593;DHT22;4334;49.982;8.398;2023-05-15T02:02:26;10.30;99.90
8593;DHT22;4334;49.982;8.398;2023-05-15T02:04:53;10.10;99.90
8593;DHT22;4334;49.982;8.398;2023-05-15T02:07:22;10.20;99.90
8593;DHT22;4334;49.982;8.398;2023-05-15T02:09:49;10.20;99.90
8593;DHT22;4334;49.982;8.398;2023-05-15T02:12:17;12.50;99.90
8593;DHT22;4334;49.982;8.398;2023-05-15T02:14:47;10.00;99.90
8593;DHT22;4334;49.982;8.398;2023-05-15T02:17:14;9.90;99.90
8593;DHT22;4334;49.982;8.398;2023-05-15T02:19:41;10.00;99.90
8593;DHT22;4334;49.982;8.398;2023-05-15T02:22:08;10.00;99.90
8593;DHT22;4334;49.982;8.398;2023-05-15T02:27:12;9.80;99.90
8593;DHT22;4334;49.982;8.398;2023-05-15T02:29:53;9.90;99.90
8593;DHT22;4334;49.982;8.398;2023-05-15T02:32:26;9.70;99.90
8593;DHT22;4334;49.982;8.398;2023-05-15T02:35:00;9.50;99.90
8593;DHT22;4334;49.982;8.398;2023-05-15T02:37:31;9.40;99.90
8593;DHT22;4334;49.982;8.398;2023-05-15T02:40:01;9.30;99.90
8593;DHT22;4334;49.982;8.398;2023-05-15T02:42:31;9.20;99.90
8593;DHT22;4334;49.982;8.398;2023-05-15T02:45:00;9.20;99.90
8593;DHT22;4334;49.982;8.398;2023-05-15T02:47:28;9.20;99.90
8593;DHT22;4334;49.982;8.398;2023-05-15T02:49:56;9.10;99.90
8593;DHT22;4334;49.982;8.398;2023-05-15T02:52:23;9.10;99.90
8593;DHT22;4334;49.982;8.398;2023-05-15T02:54:50;9.10;99.90
8593;DHT22;4334;49.982;8.398;2023-05-15T02:57:16;9.00;99.90
8593;DHT22;4334;49.982;8.398;2023-05-15T02:59:43;9.10;99.90
8593;DHT22;4334;49.982;8.398;2023-05-15T03:02:12;9.30;99.90
8593;DHT22;4334;49.982;8.398;2023-05-15T03:04:38;9.40;99.90
8593;DHT22;4334;49.982;8.398;2023-05-15T03:07:05;9.40;99.90
8593;DHT22;4334;49.982;8.398;2023-05-15T03:09:32;9.40;99.90
8593;DHT22;4334;49.982;8.398;2023-05-15T03:11:58;9.30;99.90
8593;DHT22;4334;49.982;8.398;2023-05-15T03:14:25;9.20;99.90
8593;DHT22;4334;49.982;8.398;2023-05-15T03:16:52;9.20;99.90
8593;DHT22;4334;49.982;8.398;2023-05-15T03:19:20;9.20;99.90
8593;DHT22;4334;49.982;8.398;2023-05-15T03:21:46;9.90;99.90
8593;DHT22;4334;49.982;8.398;2023-05-15T03:24:13;9.30;99.90
8593;DHT22;4334;49.982;8.398;2023-05-15T03:26:40;9.50;99.90
8593;DHT22;4334;49.982;8.398;2023-05-15T03:29:08;9.50;99.90
8593;DHT22;4334;49.982;8.398;2023-05-15T03:31:35;9.50;99.90
8593;DHT22;4334;49.982;8.398;2023-05-15T03:34:01;9.60;99.90
8593;DHT22;4334;49.982;8.398;2023-05-15T03:36:29;9.70;99.90
8593;DHT22;4334;49.982;8.398;2023-05-15T03:38:56;11.40;99.90
8593;DHT22;4334;49.982;8.398;2023-05-15T03:41:23;9.60;99.90
8593;DHT22;4334;49.982;8.398;2023-05-15T03:43:52;9.40;99.90
8593;DHT22;4334;49.982;8.398;2023-05-15T03:46:19;9.50;99.90
8593;DHT22;4334;49.982;8.398;2023-05-15T03:48:45;9.50;99.90
8593;DHT22;4334;49.982;8.398;2023-05-15T03:51:12;9.60;99.90
8593;DHT22;4334;49.982;8.398;2023-05-15T03:53:40;9.60;99.90
8593;DHT22;4334;49.982;8.398;2023-05-15T03:56:10;9.70;99.90
8593;DHT22;4334;49.982;8.398;2023-05-15T03:58:36;10.80;99.90
8593;DHT22;4334;49.982;8.398;2023-05-15T04:01:06;9.70;99.90
8593;DHT22;4334;49.982;8.398;2023-05-15T04:03:33;9.60;99.90
8593;DHT22;4334;49.982;8.398;2023-05-15T04:05:59;9.60;99.90
8593;DHT22;4334;49.982;8.398;2023-05-15T04:08:26;9.60;99.90
8593;DHT22;4334;49.982;8.398;2023-05-15T04:10:54;9.60;99.90
8593;DHT22;4334;49.982;8.398;2023-05-15T04:13:21;9.70;99.90
8593;DHT22;4334;49.982;8.398;2023-05-15T04:15:48;9.70;99.90
8593;DHT22;4334;49.982;8.398;2023-05-15T04:18:14;9.70;99.90
8593;DHT22;4334;49.982;8.398;2023-05-15T04:20:41;9.60;99.90
8593;DHT22;4334;49.982;8.398;2023-05-15T04:23:08;9.60;99.90
8593;DHT22;4334;49.982;8.398;2023-05-15T04:25:34;9.70;99.90
8593;DHT22;4334;49.982;8.398;2023-05-15T04:28:05;9.70;99.90
8593;DHT22;4334;49.982;8.398;2023-05-15T04:30:31;9.70;99.90
8593;DHT22;4334;49.982;8.398;2023-05-15T04:32:58;11.30;99.90
8593;DHT22;4334;49.982;8.398;2023-05-15T04:35:25;9.90;99.90
8593;DHT22;4334;49.982;8.398;2023-05-15T04:37:52;10.20;99.90
8593;DHT22;4334;49.982;8.398;2023-05-15T04:40:18;10.40;99.90
8593;DHT22;4334;49.982;8.398;2023-05-15T04:42:45;10.30;99.90
8593;DHT22;4334;49.982;8.398;2023-05-15T04:45:13;10.60;99.90
8593;DHT22;4334;49.982;8.398;2023-05-15T04:47:40;11.00;99.90
8593;DHT22;4334;49.982;8.398;2023-05-15T04:50:10;11.60;99.90
8593;DHT22;4334;49.982;8.398;2023-05-15T04:52:37;12.20;99.90
8593;DHT22;4334;49.982;8.398;2023-05-15T04:55:05;12.60;99.90
8593;DHT22;4334;49.982;8.398;2023-05-15T04:57:32;13.00;99.90
8593;DHT22;4334;49.982;8.398;2023-05-15T04:59:59;13.50;99.90
8593;DHT22;4334;49.982;8.398;2023-05-15T05:02:27;13.90;99.90
8593;DHT22;4334;49.982;8.398;2023-05-15T05:04:54;14.50;99.90
8593;DHT22;4334;49.982;8.398;2023-05-15T05:07:21;14.70;99.90
8593;DHT22;4334;49.982;8.398;2023-05-15T05:09:47;15.60;99.90
8593;DHT22;4334;49.982;8.398;2023-05-15T05:12:14;15.70;99.90
8593;DHT22;4334;49.982;8.398;2023-05-15T05:14:40;16.10;99.90
8593;DHT22;4334;49.982;8.398;2023-05-15T05:17:09;16.40;99.90
8593;DHT22;4334;49.982;8.398;2023-05-15T05:19:37;16.70;99.90
8593;DHT22;4334;49.982;8.398;2023-05-15T05:22:04;17.10;99.90
8593;DHT22;4334;49.982;8.398;2023-05-15T05:24:32;17.20;99.90
8593;DHT22;4334;49.982;8.398;2023-05-15T05:27:00;17.20;99.90
8593;DHT22;4334;49.982;8.398;2023-05-15T05:29:26;16.90;99.90
8593;DHT22;4334;49.982;8.398;2023-05-15T05:31:56;16.60;99.90
8593;DHT22;4334;49.982;8.398;2023-05-15T05:34:23;16.20;99.90
8593;DHT22;4334;49.982;8.398;2023-05-15T05:36:51;16.30;99.90
8593;DHT22;4334;49.982;8.398;2023-05-15T05:39:17;16.30;99.90
8593;DHT22;4334;49.982;8.398;2023-05-15T05:41:47;16.80;99.90
8593;DHT22;4334;49.982;8.398;2023-05-15T05:44:14;16.80;99.90
8593;DHT22;4334;49.982;8.398;2023-05-15T05:46:41;17.30;99.90
8593;DHT22;4334;49.982;8.398;2023-05-15T05:49:09;17.60;99.90
8593;DHT22;4334;49.982;8.398;2023-05-15T05:51:36;18.20;99.90
8593;DHT22;4334;49.982;8.398;2023-05-15T05:54:05;18.60;99.90
8593;DHT22;4334;49.982;8.398;2023-05-15T05:56:31;18.70;99.90
8593;DHT22;4334;49.982;8.398;2023-05-15T05:58:58;18.20;99.90
8593;DHT22;4334;49.982;8.398;2023-05-15T06:01:28;17.30;99.90
8593;DHT22;4334;49.982;8.398;2023-05-15T06:03:55;16.10;99.90
8593;DHT22;4334;49.982;8.398;2023-05-15T06:06:22;16.10;99.90
8593;DHT22;4334;49.982;8.398;2023-05-15T06:08:48;17.20;99.90
8593;DHT22;4334;49.982;8.398;2023-05-15T06:11:16;17.10;99.90
8593;DHT22;4334;49.982;8.398;2023-05-15T06:16:10;16.80;99.90
8593;DHT22;4334;49.982;8.398;2023-05-15T06:18:37;16.50;99.90
8593;DHT22;4334;49.982;8.398;2023-05-15T06:21:04;16.40;99.90
8593;DHT22;4334;49.982;8.398;2023-05-15T06:25:57;17.00;99.90
8593;DHT22;4334;49.982;8.398;2023-05-15T06:28:30;17.10;99.90
8593;DHT22;4334;49.982;8.398;2023-05-15T06:30:56;18.00;99.90
8593;DHT22;4334;49.982;8.398;2023-05-15T06:33:23;19.00;99.90
8593;DHT22;4334;49.982;8.398;2023-05-15T06:35:50;18.80;99.90
8593;DHT22;4334;49.982;8.398;2023-05-15T06:38:17;18.40;99.90
8593;DHT22;4334;49.982;8.398;2023-05-15T06:43:10;18.00;99.90
8593;DHT22;4334;49.982;8.398;2023-05-15T06:45:39;18.10;99.90
8593;DHT22;4334;49.982;8.398;2023-05-15T06:48:05;18.60;99.90
8593;DHT22;4334;49.982;8.398;2023-05-15T06:50:33;18.70;99.90
8593;DHT22;4334;49.982;8.398;2023-05-15T06:53:00;19.30;99.90
8593;DHT22;4334;49.982;8.398;2023-05-15T06:55:27;19.80;99.90
8593;DHT22;4334;49.982;8.398;2023-05-15T06:57:53;20.60;99.90
8593;DHT22;4334;49.982;8.398;2023-05-15T07:00:21;23.10;99.90
8593;DHT22;4334;49.982;8.398;2023-05-15T07:02:53;21.20;99.90
8593;DHT22;4334;49.982;8.398;2023-05-15T07:05:19;20.50;99.90
8593;DHT22;4334;49.982;8.398;2023-05-15T07:07:46;20.70;99.90
8593;DHT22;4334;49.982;8.398;2023-05-15T07:10:13;20.90;99.90
8593;DHT22;4334;49.982;8.398;2023-05-15T07:12:40;20.90;99.90
8593;DHT22;4334;49.982;8.398;2023-05-15T07:15:07;19.80;99.90
8593;DHT22;4334;49.982;8.398;2023-05-15T07:17:34;19.00;99.90
8593;DHT22;4334;49.982;8.398;2023-05-15T07:20:02;18.80;99.90
8593;DHT22;4334;49.982;8.398;2023-05-15T07:22:30;18.70;99.90
8593;DHT22;4334;49.982;8.398;2023-05-15T07:24:57;19.00;99.90
8593;DHT22;4334;49.982;8.398;2023-05-15T07:27:23;19.00;99.90
8593;DHT22;4334;49.982;8.398;2023-05-15T07:29:51;19.20;99.90
8593;DHT22;4334;49.982;8.398;2023-05-15T07:32:18;19.10;99.90
8593;DHT22;4334;49.982;8.398;2023-05-15T07:34:45;19.10;99.90
8593;DHT22;4334;49.982;8.398;2023-05-15T07:37:13;19.50;99.90
8593;DHT22;4334;49.982;8.398;2023-05-15T07:39:39;19.80;99.90
8593;DHT22;4334;49.982;8.398;2023-05-15T07:42:06;19.90;99.90
8593;DHT22;4334;49.982;8.398;2023-05-15T07:44:33;20.40;99.90
8593;DHT22;4334;49.982;8.398;2023-05-15T07:47:00;20.10;99.90
8593;DHT22;4334;49.982;8.398;2023-05-15T07:49:26;20.10;99.90
8593;DHT22;4334;49.982;8.398;2023-05-15T07:51:53;20.00;99.90
8593;DHT22;4334;49.982;8.398;2023-05-15T07:54:24;20.10;99.90
8593;DHT22;4334;49.982;8.398;2023-05-15T07:56:51;20.20;99.90
8593;DHT22;4334;49.982;8.398;2023-05-15T07:59:18;21.20;99.90
8593;DHT22;4334;49.982;8.398;2023-05-15T08:01:45;21.30;99.90
8593;DHT22;4334;49.982;8.398;2023-05-15T08:04:13;22.10;99.90
8593;DHT22;4334;49.982;8.398;2023-05-15T08:06:40;22.70;99.90
8593;DHT22;4334;49.982;8.398;2023-05-15T08:09:07;22.90;99.90
8593;DHT22;4334;49.982;8.398;2023-05-15T08:11:35;22.80;99.90
8593;DHT22;4334;49.982;8.398;2023-05-15T08:14:02;22.50;99.90
8593;DHT22;4334;49.982;8.398;2023-05-15T08:16:31;22.20;99.90
8593;DHT22;4334;49.982;8.398;2023-05-15T08:18:58;22.30;99.90
8593;DHT22;4334;49.982;8.398;2023-05-15T08:21:28;22.40;99.90
8593;DHT22;4334;49.982;8.398;2023-05-15T08:23:55;22.00;99.90
8593;DHT22;4334;49.982;8.398;2023-05-15T08:26:22;22.20;99.90
8593;DHT22;4334;49.982;8.398;2023-05-15T08:28:50;21.80;99.90
8593;DHT22;4334;49.982;8.398;2023-05-15T08:31:17;22.00;99.90
8593;DHT22;4334;49.982;8.398;2023-05-15T08:33:44;22.00;99.90
8593;DHT22;4334;49.982;8.398;2023-05-15T08:36:10;22.30;99.90
8593;DHT22;4334;49.982;8.398;2023-05-15T08:38:37;22.40;99.90
8593;DHT22;4334;49.982;8.398;2023-05-15T08:41:07;22.10;99.90
8593;DHT22;4334;49.982;8.398;2023-05-15T08:43:36;22.60;99.90
8593;DHT22;4334;49.982;8.398;2023-05-15T08:46:06;22.60;99.90
8593;DHT22;4334;49.982;8.398;2023-05-15T08:48:36;22.60;99.90
8593;DHT22;4334;49.982;8.398;2023-05-15T08:51:03;22.60;99.90
8593;DHT22;4334;49.982;8.398;2023-05-15T08:53:29;22.70;99.90
8593;DHT22;4334;49.982;8.398;2023-05-15T08:55:56;22.40;99.90
8593;DHT22;4334;49.982;8.398;2023-05-15T08:58:24;25.20;99.90
8593;DHT22;4334;49.982;8.398;2023-05-15T09:00:53;27.50;99.90
8593;DHT22;4334;49.982;8.398;2023-05-15T09:03:21;23.20;99.90
8593;DHT22;4334;49.982;8.398;2023-05-15T09:05:49;23.30;99.90
8593;DHT22;4334;49.982;8.398;2023-05-15T09:08:18;23.00;99.90
8593;DHT22;4334;49.982;8.398;2023-05-15T09:10:48;25.90;99.90
8593;DHT22;4334;49.982;8.398;2023-05-15T09:13:15;23.10;99.90
8593;DHT22;4334;49.982;8.398;2023-05-15T09:15:44;24.00;99.90
8593;DHT22;4334;49.982;8.398;2023-05-15T09:18:12;24.10;99.90
8593;DHT22;4334;49.982;8.398;2023-05-15T09:20:41;24.10;99.90
8593;DHT22;4334;49.982;8.398;2023-05-15T09:23:22;22.70;99.90
8593;DHT22;4334;49.982;8.398;2023-05-15T09:25:50;23.10;99.90
8593;DHT22;4334;49.982;8.398;2023-05-15T09:28:27;23.30;99.90
8593;DHT22;4334;49.982;8.398;2023-05-15T09:30:58;23.80;99.90
8593;DHT22;4334;49.982;8.398;2023-05-15T09:33:31;27.60;99.90
8593;DHT22;4334;49.982;8.398;2023-05-15T09:35:59;24.50;99.90
8593;DHT22;4334;49.982;8.398;2023-05-15T09:38:26;24.10;99.90
8593;DHT22;4334;49.982;8.398;2023-05-15T09:41:01;25.30;99.90
8593;DHT22;4334;49.982;8.398;2023-05-15T09:43:28;24.40;99.90
8593;DHT22;4334;49.982;8.398;2023-05-15T09:45:55;25.10;99.90
8593;DHT22;4334;49.982;8.398;2023-05-15T09:48:22;24.90;99.90
8593;DHT22;4334;49.982;8.398;2023-05-15T09:50:49;24.10;99.90
8593;DHT22;4334;49.982;8.398;2023-05-15T09:53:17;24.00;99.90
8593;DHT22;4334;49.982;8.398;2023-05-15T09:55:44;23.80;99.90
8593;DHT22;4334;49.982;8.398;2023-05-15T09:58:14;26.00;99.90
8593;DHT22;4334;49.982;8.398;2023-05-15T10:00:42;24.40;99.90
8593;DHT22;4334;49.982;8.398;2023-05-15T10:03:10;24.10;99.90
8593;DHT22;4334;49.982;8.398;2023-05-15T10:05:37;24.70;99.90
8593;DHT22;4334;49.982;8.398;2023-05-15T10:08:05;25.20;99.90
8593;DHT22;4334;49.982;8.398;2023-05-15T10:10:33;25.50;99.90
8593;DHT22;4334;49.982;8.398;2023-05-15T10:13:00;23.70;99.90
8593;DHT22;4334;49.982;8.398;2023-05-15T10:15:29;22.60;99.90
8593;DHT22;4334;49.982;8.398;2023-05-15T10:17:56;22.10;99.90
8593;DHT22;4334;49.982;8.398;2023-05-15T10:20:24;23.20;99.90
8593;DHT22;4334;49.982;8.398;2023-05-15T10:22:53;23.20;99.90
8593;DHT22;4334;49.982;8.398;2023-05-15T10:25:31;23.90;99.90
8593;DHT22;4334;49.982;8.398;2023-05-15T10:28:01;24.70;99.90
8593;DHT22;4334;49.982;8.398;2023-05-15T10:30:30;24.40;99.90
8593;DHT22;4334;49.982;8.398;2023-05-15T10:32:58;24.60;99.90
8593;DHT22;4334;49.982;8.398;2023-05-15T10:35:26;24.90;99.90
8593;DHT22;4334;49.982;8.398;2023-05-15T10:37:53;24.40;99.90
8593;DHT22;4334;49.982;8.398;2023-05-15T10:40:20;24.10;99.90
8593;DHT22;4334;49.982;8.398;2023-05-15T10:42:47;24.30;99.90
8593;DHT22;4334;49.982;8.398;2023-05-15T10:45:15;24.20;99.90
8593;DHT22;4334;49.982;8.398;2023-05-15T10:47:43;24.40;99.90
8593;DHT22;4334;49.982;8.398;2023-05-15T10:50:11;23.20;99.90
8593;DHT22;4334;49.982;8.398;2023-05-15T10:52:41;22.00;99.90
8593;DHT22;4334;49.982;8.398;2023-05-15T10:55:12;22.70;99.90
8593;DHT22;4334;49.982;8.398;2023-05-15T10:57:39;22.80;99.90
8593;DHT22;4334;49.982;8.398;2023-05-15T11:00:23;23.70;99.90
8593;DHT22;4334;49.982;8.398;2023-05-15T11:02:50;29.20;99.90
8593;DHT22;4334;49.982;8.398;2023-05-15T11:05:18;24.70;99.30
8593;DHT22;4334;49.982;8.398;2023-05-15T11:08:24;24.40;99.30
8593;DHT22;4334;49.982;8.398;2023-05-15T11:10:54;24.60;98.90
8593;DHT22;4334;49.982;8.398;2023-05-15T11:13:21;24.40;98.80
8593;DHT22;4334;49.982;8.398;2023-05-15T11:15:49;25.30;96.50
8593;DHT22;4334;49.982;8.398;2023-05-15T11:18:16;25.90;95.60
8593;DHT22;4334;49.982;8.398;2023-05-15T11:21:04;26.40;93.20
8593;DHT22;4334;49.982;8.398;2023-05-15T11:23:37;26.30;93.30
8593;DHT22;4334;49.982;8.398;2023-05-15T11:26:04;25.80;95.80
8593;DHT22;4334;49.982;8.398;2023-05-15T11:28:40;25.70;96.50
8593;DHT22;4334;49.982;8.398;2023-05-15T11:31:08;23.90;97.10
8593;DHT22;4334;49.982;8.398;2023-05-15T11:33:37;24.10;96.60
8593;DHT22;4334;49.982;8.398;2023-05-15T11:36:05;24.60;94.80
8593;DHT22;4334;49.982;8.398;2023-05-15T11:38:37;25.10;95.50
8593;DHT22;4334;49.982;8.398;2023-05-15T11:41:16;26.00;94.50
8593;DHT22;4334;49.982;8.398;2023-05-15T11:43:43;26.40;93.00
8593;DHT22;4334;49.982;8.398;2023-05-15T11:46:12;25.10;93.70
8593;DHT22;4334;49.982;8.398;2023-05-15T11:48:40;23.90;94.50
8593;DHT22;4334;49.982;8.398;2023-05-15T11:51:18;23.00;95.40
8593;DHT22;4334;49.982;8.398;2023-05-15T11:53:46;24.20;95.20
8593;DHT22;4334;49.982;8.398;2023-05-15T11:56:17;26.40;94.00
8593;DHT22;4334;49.982;8.398;2023-05-15T11:58:47;26.30;94.20
8593;DHT22;4334;49.982;8.398;2023-05-15T12:01:15;26.70;92.10
8593;DHT22;4334;49.982;8.398;2023-05-15T12:03:42;26.90;92.50
8593;DHT22;4334;49.982;8.398;2023-05-15T12:06:14;26.70;90.40
8593;DHT22;4334;49.982;8.398;2023-05-15T12:08:41;26.10;90.90
8593;DHT22;4334;49.982;8.398;2023-05-15T12:11:08;26.00;91.70
8593;DHT22;4334;49.982;8.398;2023-05-15T12:13:35;25.90;91.70
8593;DHT22;4334;49.982;8.398;2023-05-15T12:16:02;26.30;91.30
8593;DHT22;4334;49.982;8.398;2023-05-15T12:18:31;25.40;91.70
8593;DHT22;4334;49.982;8.398;2023-05-15T12:20:58;25.20;92.00
8593;DHT22;4334;49.982;8.398;2023-05-15T12:23:26;24.40;91.80
8593;DHT22;4334;49.982;8.398;2023-05-15T12:25:56;23.70;92.40
8593;DHT22;4334;49.982;8.398;2023-05-15T12:28:24;23.30;93.50
8593;DHT22;4334;49.982;8.398;2023-05-15T12:30:52;23.20;94.60
8593;DHT22;4334;49.982;8.398;2023-05-15T12:33:19;23.10;95.20
8593;DHT22;4334;49.982;8.398;2023-05-15T12:35:53;23.40;94.00
8593;DHT22;4334;49.982;8.398;2023-05-15T12:38:21;23.80;92.40
8593;DHT22;4334;49.982;8.398;2023-05-15T12:43:18;24.60;92.00
8593;DHT22;4334;49.982;8.398;2023-05-15T12:45:51;24.60;92.30
8593;DHT22;4334;49.982;8.398;2023-05-15T12:48:17;25.00;91.00
8593;DHT22;4334;49.982;8.398;2023-05-15T12:50:44;24.80;91.70
8593;DHT22;4334;49.982;8.398;2023-05-15T12:53:13;24.20;92.00
8593;DHT22;4334;49.982;8.398;2023-05-15T12:55:42;23.90;92.30
8593;DHT22;4334;49.982;8.398;2023-05-15T13:00:39;23.00;90.80
8593;DHT22;4334;49.982;8.398;2023-05-15T13:03:08;23.50;92.00
8593;DHT22;4334;49.982;8.398;2023-05-15T13:05:36;23.50;92.90
8593;DHT22;4334;49.982;8.398;2023-05-15T13:08:04;24.10;92.70
8593;DHT22;4334;49.982;8.398;2023-05-15T13:10:35;24.00;93.00
8593;DHT22;4334;49.982;8.398;2023-05-15T13:13:02;24.80;92.10
8593;DHT22;4334;49.982;8.398;2023-05-15T13:15:31;25.50;91.30
8593;DHT22;4334;49.982;8.398;2023-05-15T13:18:00;25.80;90.00
8593;DHT22;4334;49.982;8.398;2023-05-15T13:20:27;25.40;89.80
8593;DHT22;4334;49.982;8.398;2023-05-15T13:25:21;25.10;90.60
8593;DHT22;4334;49.982;8.398;2023-05-15T13:27:49;25.30;90.00
8593;DHT22;4334;49.982;8.398;2023-05-15T13:30:17;25.30;89.00
8593;DHT22;4334;49.982;8.398;2023-05-15T13:32:44;25.20;88.70
8593;DHT22;4334;49.982;8.398;2023-05-15T13:35:11;24.40;89.50
8593;DHT22;4334;49.982;8.398;2023-05-15T13:40:07;23.70;90.90
8593;DHT22;4334;49.982;8.398;2023-05-15T13:42:35;23.70;90.80
8593;DHT22;4334;49.982;8.398;2023-05-15T13:45:04;29.30;93.40
8593;DHT22;4334;49.982;8.398;2023-05-15T13:47:31;25.00;90.30
8593;DHT22;4334;49.982;8.398;2023-05-15T13:49:58;24.90;88.10
8593;DHT22;4334;49.982;8.398;2023-05-15T13:52:25;24.30;89.10
8593;DHT22;4334;49.982;8.398;2023-05-15T13:54:52;24.80;88.40
8593;DHT22;4334;49.982;8.398;2023-05-15T13:57:19;23.60;90.10
8593;DHT22;4334;49.982;8.398;2023-05-15T14:02:15;20.90;92.70
8593;DHT22;4334;49.982;8.398;2023-05-15T14:09:39;20.70;93.90
8593;DHT22;4334;49.982;8.398;2023-05-15T14:12:06;21.10;94.60
8593;DHT22;4334;49.982;8.398;2023-05-15T14:14:34;20.80;94.70
8593;DHT22;4334;49.982;8.398;2023-05-15T14:19:29;20.20;95.80
8593;DHT22;4334;49.982;8.398;2023-05-15T14:22:02;20.80;94.80
8593;DHT22;4334;49.982;8.398;2023-05-15T14:31:50;22.90;92.70
8593;DHT22;4334;49.982;8.398;2023-05-15T14:34:17;23.40;92.80
8593;DHT22;4334;49.982;8.398;2023-05-15T14:36:45;23.90;92.30
8593;DHT22;4334;49.982;8.398;2023-05-15T14:41:40;23.70;91.30
8593;DHT22;4334;49.982;8.398;2023-05-15T14:44:07;21.30;93.80
8593;DHT22;4334;49.982;8.398;2023-05-15T14:46:33;20.70;95.20
8593;DHT22;4334;49.982;8.398;2023-05-15T14:49:01;20.10;95.50
8593;DHT22;4334;49.982;8.398;2023-05-15T14:51:27;19.90;96.50
8593;DHT22;4334;49.982;8.398;2023-05-15T14:53:55;19.90;97.90
8593;DHT22;4334;49.982;8.398;2023-05-15T14:56:22;19.40;98.30
8593;DHT22;4334;49.982;8.398;2023-05-15T15:01:18;18.70;99.90
8593;DHT22;4334;49.982;8.398;2023-05-15T15:08:41;21.00;99.90
8593;DHT22;4334;49.982;8.398;2023-05-15T15:11:09;22.00;98.10
8593;DHT22;4334;49.982;8.398;2023-05-15T15:16:03;21.20;97.70
8593;DHT22;4334;49.982;8.398;2023-05-15T15:18:31;21.20;97.40
8593;DHT22;4334;49.982;8.398;2023-05-15T15:28:22;21.50;95.80
8593;DHT22;4334;49.982;8.398;2023-05-15T15:30:49;20.90;96.30
8593;DHT22;4334;49.982;8.398;2023-05-15T15:33:15;20.90;95.70
8593;DHT22;4334;49.982;8.398;2023-05-15T15:40:39;19.90;95.80
8593;DHT22;4334;49.982;8.398;2023-05-15T15:45:34;19.30;96.70
8593;DHT22;4334;49.982;8.398;2023-05-15T15:48:01;19.10;96.90
8593;DHT22;4334;49.982;8.398;2023-05-15T15:50:28;19.40;97.30
8593;DHT22;4334;49.982;8.398;2023-05-15T15:52:55;19.60;97.70
8593;DHT22;4334;49.982;8.398;2023-05-15T15:55:22;19.50;97.20
8593;DHT22;4334;49.982;8.398;2023-05-15T15:57:49;19.90;97.70
8593;DHT22;4334;49.982;8.398;2023-05-15T16:00:16;20.10;96.80
8593;DHT22;4334;49.982;8.398;2023-05-15T16:02:44;20.30;97.20
8593;DHT22;4334;49.982;8.398;2023-05-15T16:05:11;20.80;97.10
8593;DHT22;4334;49.982;8.398;2023-05-15T16:07:38;21.20;95.40
8593;DHT22;4334;49.982;8.398;2023-05-15T16:10:06;20.80;94.90
8593;DHT22;4334;49.982;8.398;2023-05-15T16:12:35;21.00;95.20
8593;DHT22;4334;49.982;8.398;2023-05-15T16:17:36;20.70;95.40
8593;DHT22;4334;49.982;8.398;2023-05-15T16:20:05;21.00;95.30
8593;DHT22;4334;49.982;8.398;2023-05-15T16:22:32;21.10;95.00
8593;DHT22;4334;49.982;8.398;2023-05-15T16:37:16;23.60;93.50
8593;DHT22;4334;49.982;8.398;2023-05-15T16:42:10;23.40;93.60
8593;DHT22;4334;49.982;8.398;2023-05-15T16:44:37;22.90;93.80
8593;DHT22;4334;49.982;8.398;2023-05-15T16:47:04;23.20;94.60
8593;DHT22;4334;49.982;8.398;2023-05-15T16:49:30;23.40;94.20
8593;DHT22;4334;49.982;8.398;2023-05-15T16:54:25;23.30;95.40
8593;DHT22;4334;49.982;8.398;2023-05-15T16:56:52;23.50;95.60
8593;DHT22;4334;49.982;8.398;2023-05-15T17:01:46;23.20;96.00
8593;DHT22;4334;49.982;8.398;2023-05-15T17:04:13;23.30;95.60
8593;DHT22;4334;49.982;8.398;2023-05-15T17:06:39;22.90;95.10
8593;DHT22;4334;49.982;8.398;2023-05-15T17:11:35;22.10;95.70
8593;DHT22;4334;49.982;8.398;2023-05-15T17:14:04;22.10;95.00
8593;DHT22;4334;49.982;8.398;2023-05-15T17:18:57;21.80;96.00
8593;DHT22;4334;49.982;8.398;2023-05-15T17:26:20;21.80;95.90
8593;DHT22;4334;49.982;8.398;2023-05-15T17:28:48;21.90;95.80
8593;DHT22;4334;49.982;8.398;2023-05-15T17:31:15;21.80;95.60
8593;DHT22;4334;49.982;8.398;2023-05-15T17:41:05;21.40;94.30
8593;DHT22;4334;49.982;8.398;2023-05-15T17:43:32;21.20;94.10
8593;DHT22;4334;49.982;8.398;2023-05-15T17:53:26;20.30;93.90
8593;DHT22;4334;49.982;8.398;2023-05-15T17:55:53;20.30;94.20
8593;DHT22;4334;49.982;8.398;2023-05-15T17:58:20;20.10;94.40
8593;DHT22;4334;49.982;8.398;2023-05-15T18:00:47;19.90;95.00
8593;DHT22;4334;49.982;8.398;2023-05-15T18:03:15;19.60;95.80
8593;DHT22;4334;49.982;8.398;2023-05-15T18:05:43;19.30;96.30
8593;DHT22;4334;49.982;8.398;2023-05-15T18:08:10;19.30;96.50
8593;DHT22;4334;49.982;8.398;2023-05-15T18:10:37;19.00;96.90
8593;DHT22;4334;49.982;8.398;2023-05-15T18:13:04;18.80;97.20
8593;DHT22;4334;49.982;8.398;2023-05-15T18:15:32;18.60;98.00
8593;DHT22;4334;49.982;8.398;2023-05-15T18:18:00;18.50;98.30